Golden Triangle Regional Airport
KGTR : now visible

Airfield :











YOU CAN JOIN US ON...

 
LOGIN :

Register | Disclaimer

   EN    FR    IT 

 









Legend :    VFR   Marginal VFR   IFR   Intensive IFR   Very Intensive IFR
Visi :
Ceiling :
>= 8 km
>= 3000ft
5 to 8 km
1000 to 3000 ft
1500m to 5 km
500 to 1000 ft
800 to 1500m
200 to 500 ft
< 800m
< 200 ft
Symbols :   Thunderstorms  Fog  Heavy snow  Heavy precipitations  Wind > 20 kt






- Airport Elevation : 264 ft


KGTR - Golden Triangle Regional

CURRENT METAR :
  • 200256Z AUTO 36009KT 10SM CLR 02/M06 A3041 RMK AO2 SLP310 6//// T00221056 51012 FZRANO PNO $

EXPIRED METARs :
  • 200156Z AUTO 34010KT 10SM CLR 04/M07 A3040 RMK AO2 SLP305 T00391072 PNO $
  • 200056Z 33005KT 10SM CLR 04/M06 A3040 RMK AO2 SLP303 T00391061 PNO $

TAF KGTR
Valid from the 20 at 00:00 until the 21 at 00:00 UTC


192331Z 2000/2024 33013KT P6SM SKC



MET'MAP, your aeronautical weather chart ! - Copyright ORBIFLY December 2007 - Disclaimer

ORBIFLY MET'MAP TEAM :

Programming & Development : Alexandra Zaïnal
Concept & original design : Baudouin d'Aumeries
Assistance for programming : Marc-Olivier Méhu
Technical & hardware support : Manuel Goepfert

Contact : metmap@orbifly.com




SOURCES & CREDITS :

   NOAA       Earth
Advisory